Terminal Aerodrome Forecast
Issued by NWS

Home | Current Version | Previous Version | Text Only | Print | Product List | Glossary On
Versions: 1 2 3 4 5 6 7 8 9 10 11 12 13 14 15 16 17 18
000
FTUS44 KEWX 301736
TAFSSF
TAF
KSSF 301736Z 3018/3118 VRB03KT P6SM SCT250
     FM302000 11006KT P6SM FEW070 SCT250
     FM310800 VRB03KT P6SM FEW010 SCT070 SCT250=

USA.gov is the U.S. government's official web portal to all federal, state and local government web resources and services.